Time;durP1;ratioP1;P1;durP2;ratioP2;P2;SDS_P1;SDS_P2;PMS_P1;PMS_P2;Temp;Humidity;BMP_temperature;BMP_pressure;BME280_temperature;BME280_humidity;BME280_pressure;Samples;Min_cycle;Max_cycle;Signal;HPM_P1;HPM_P2
2023/10/04 00:00:14;;;;;;;2.57;1.70;;;;;;;12.67;100.00;154613.44;5005016;28;20804;-80
2023/10/04 00:02:41;;;;;;;2.53;1.87;;;;;;;12.62;100.00;154600.47;5000300;28;20440;-79
2023/10/04 00:05:10;;;;;;;9.47;3.17;;;;;;;12.60;100.00;154596.56;4991488;28;20492;-79
2023/10/04 00:07:37;;;;;;;3.33;1.60;;;;;;;12.58;100.00;154590.06;5012224;28;20523;-79
2023/10/04 00:10:05;;;;;;;2.40;1.77;;;;;;;12.59;100.00;154592.69;4997548;28;20440;-80
2023/10/04 00:12:31;;;;;;;3.17;2.13;;;;;;;12.59;100.00;154592.69;4992154;28;20854;-79
2023/10/04 00:14:58;;;;;;;3.27;2.30;;;;;;;12.56;100.00;154584.91;5010742;28;20442;-80
2023/10/04 00:17:25;;;;;;;3.50;2.00;;;;;;;12.56;100.00;154584.91;5012629;28;20504;-80
2023/10/04 00:19:52;;;;;;;2.23;2.00;;;;;;;12.59;100.00;154592.69;5009874;28;20457;-80
2023/10/04 00:22:23;;;;;;;3.40;2.30;;;;;;;12.59;100.00;154592.69;5011747;28;20432;-80
2023/10/04 00:24:51;;;;;;;3.20;2.00;;;;;;;12.57;100.00;154587.50;5019752;28;21269;-80
2023/10/04 00:27:18;;;;;;;5.70;2.30;;;;;;;12.51;100.00;154571.94;5000919;28;20478;-80
2023/10/04 00:29:45;;;;;;;3.17;1.90;;;;;;;12.49;100.00;154566.75;5005680;28;20555;-80
2023/10/04 00:32:12;;;;;;;2.10;1.80;;;;;;;12.48;100.00;154565.44;5006687;28;20469;-80
2023/10/04 00:34:40;;;;;;;2.13;1.63;;;;;;;12.46;100.00;154560.28;5009981;28;20468;-80
2023/10/04 00:37:07;;;;;;;2.13;1.87;;;;;;;12.43;100.00;154551.19;5005345;28;20508;-80
2023/10/04 00:39:36;;;;;;;3.13;1.73;;;;;;;12.42;100.00;154549.88;5006186;28;20456;-80
2023/10/04 00:42:04;;;;;;;2.63;1.53;;;;;;;12.42;100.00;154548.56;4976983;28;20522;-80
2023/10/04 00:44:34;;;;;;;2.70;1.73;;;;;;;12.38;100.00;154538.22;5009915;28;20492;-80
2023/10/04 00:47:02;;;;;;;2.50;1.50;;;;;;;12.33;100.00;154526.56;4995871;28;20477;-80
2023/10/04 00:49:31;;;;;;;2.37;1.73;;;;;;;12.29;100.00;154514.84;4996490;28;20526;-80
2023/10/04 00:51:58;;;;;;;1.77;1.40;;;;;;;12.25;100.00;154504.50;5011952;28;20459;-80
2023/10/04 00:54:26;;;;;;;2.80;2.23;;;;;;;12.21;100.00;154496.72;5013998;28;20573;-80
2023/10/04 00:56:55;;;;;;;2.90;1.90;;;;;;;12.23;100.00;154501.91;4970294;28;20438;-80
2023/10/04 00:59:22;;;;;;;4.00;1.80;;;;;;;12.18;100.00;154487.63;5001088;28;20453;-80
2023/10/04 01:01:48;;;;;;;3.27;2.30;;;;;;;12.15;100.00;154479.91;4991737;28;20479;-80
2023/10/04 01:04:15;;;;;;;3.20;2.50;;;;;;;12.13;100.00;154475.97;5006511;28;20440;-80
2023/10/04 01:06:44;;;;;;;4.37;2.47;;;;;;;12.11;100.00;154470.81;4997598;28;20854;-80
2023/10/04 01:09:11;;;;;;;3.60;2.17;;;;;;;12.10;100.00;154468.19;5010824;28;20460;-80
2023/10/04 01:11:46;;;;;;;2.73;1.90;;;;;;;12.08;100.00;154463.03;5008309;28;20515;-80
2023/10/04 01:14:20;;;;;;;2.87;1.93;;;;;;;12.07;100.00;154460.41;5011497;28;20974;-80
2023/10/04 01:16:48;;;;;;;2.50;1.90;;;;;;;12.10;100.00;154466.88;4991605;28;20447;-80
2023/10/04 01:19:15;;;;;;;3.20;2.00;;;;;;;12.09;100.00;154464.31;5009445;28;20452;-80
2023/10/04 01:21:42;;;;;;;2.70;1.87;;;;;;;12.02;100.00;154446.19;4991713;28;20456;-80
2023/10/04 01:24:10;;;;;;;3.07;2.00;;;;;;;11.97;100.00;154434.50;5004232;28;20463;-80
2023/10/04 01:26:38;;;;;;;2.57;1.50;;;;;;;12.00;100.00;154442.28;5013488;28;20934;-80
2023/10/04 01:29:08;;;;;;;2.73;2.23;;;;;;;11.98;100.00;154435.81;5006533;28;20453;-80
2023/10/04 01:31:35;;;;;;;3.53;2.20;;;;;;;11.99;100.00;154439.66;5008441;28;20555;-80
2023/10/04 01:34:02;;;;;;;3.50;1.90;;;;;;;11.98;100.00;154435.81;4990530;28;20460;-80
2023/10/04 01:36:31;;;;;;;3.23;2.30;;;;;;;12.01;100.00;154443.59;4991225;28;20785;-80
2023/10/04 01:38:58;;;;;;;3.70;2.10;;;;;;;11.99;100.00;154439.66;4990293;28;20452;-80
2023/10/04 01:41:26;;;;;;;3.33;2.10;;;;;;;11.95;100.00;154429.31;5008322;28;20467;-80
2023/10/04 01:44:00;;;;;;;4.00;1.90;;;;;;;11.94;100.00;154425.47;5009043;28;20460;-80
2023/10/04 01:46:27;;;;;;;3.07;2.00;;;;;;;11.92;100.00;154421.53;5011197;28;20510;-80
2023/10/04 01:48:54;;;;;;;2.47;1.90;;;;;;;11.92;100.00;154421.53;5010829;28;20460;-80
2023/10/04 01:51:21;;;;;;;2.60;1.83;;;;;;;11.89;100.00;154413.75;5007540;28;20466;-81
2023/10/04 01:53:50;;;;;;;2.33;1.50;;;;;;;11.85;100.00;154403.41;5007432;28;20495;-80
2023/10/04 01:56:17;;;;;;;1.90;1.37;;;;;;;11.84;100.00;154399.50;4981790;28;20483;-80
2023/10/04 01:58:48;;;;;;;3.40;2.10;;;;;;;11.82;100.00;154394.31;5005923;28;20452;-80
2023/10/04 02:01:15;;;;;;;5.30;1.87;;;;;;;11.82;100.00;154395.63;4983451;28;20471;-80
2023/10/04 02:03:42;;;;;;;3.40;2.13;;;;;;;11.81;100.00;154393.00;5004206;28;20455;-80
2023/10/04 02:06:09;;;;;;;3.70;2.03;;;;;;;11.76;100.00;154380.06;5001050;28;21010;-80
2023/10/04 02:08:35;;;;;;;4.80;2.03;;;;;;;11.76;100.00;154380.06;5007786;28;20470;-80
2023/10/04 02:11:06;;;;;;;3.77;2.20;;;;;;;11.76;100.00;154380.06;4986628;28;20488;-80
2023/10/04 02:13:35;;;;;;;6.20;1.97;;;;;;;11.76;100.00;154380.06;4996998;28;20580;-80
2023/10/04 02:16:08;;;;;;;3.87;1.97;;;;;;;11.76;100.00;154380.06;5003337;28;20476;-80
2023/10/04 02:18:35;;;;;;;3.13;1.70;;;;;;;11.75;100.00;154377.50;5007626;28;20489;-80
2023/10/04 02:21:02;;;;;;;4.43;2.17;;;;;;;11.73;100.00;154371.03;5008241;28;20437;-80
2023/10/04 02:23:29;;;;;;;2.87;1.73;;;;;;;11.72;100.00;154369.72;4997854;28;20456;-80
2023/10/04 02:25:57;;;;;;;3.73;1.70;;;;;;;11.67;100.00;154356.72;5008298;28;20837;-80
2023/10/04 02:28:25;;;;;;;3.13;1.50;;;;;;;11.66;100.00;154354.09;4996729;28;20485;-80
2023/10/04 02:30:54;;;;;;;2.93;1.83;;;;;;;11.67;100.00;154356.72;4993080;28;20432;-80
2023/10/04 02:33:27;;;;;;;2.80;1.50;;;;;;;11.65;100.00;154351.50;5005909;28;20468;-79
2023/10/04 02:35:56;;;;;;;5.17;2.30;;;;;;;11.65;100.00;154351.50;5006800;28;20822;-80
2023/10/04 02:38:24;;;;;;;3.90;2.00;;;;;;;11.64;100.00;154348.94;5005197;28;20484;-80
2023/10/04 02:40:51;;;;;;;2.87;1.53;;;;;;;11.62;100.00;154343.75;5005860;28;20707;-80
2023/10/04 02:43:19;;;;;;;2.60;2.40;;;;;;;11.62;100.00;154345.00;4989383;28;20929;-81
2023/10/04 02:45:47;;;;;;;3.47;1.80;;;;;;;11.62;100.00;154343.75;5003743;28;20485;-81
2023/10/04 02:48:14;;;;;;;2.60;1.83;;;;;;;11.59;100.00;154335.97;5004174;28;20456;-80
2023/10/04 02:50:42;;;;;;;2.93;2.30;;;;;;;11.58;100.00;154333.38;4991815;28;20528;-80
2023/10/04 02:53:13;;;;;;;2.97;2.07;;;;;;;11.60;100.00;154338.53;5021564;28;20445;-80
2023/10/04 02:55:42;;;;;;;2.43;2.07;;;;;;;11.60;100.00;154338.53;4990440;28;20817;-80
2023/10/04 02:58:10;;;;;;;2.97;1.67;;;;;;;11.57;100.00;154330.75;4989592;28;20454;-81
2023/10/04 03:00:42;;;;;;;3.40;2.20;;;;;;;11.54;100.00;154323.03;4978910;28;20459;-80
2023/10/04 03:03:09;;;;;;;5.57;2.60;;;;;;;11.56;100.00;154328.19;4973566;28;20453;-80
2023/10/04 03:05:37;;;;;;;3.20;2.37;;;;;;;11.54;100.00;154323.03;5004911;28;20452;-80
2023/10/04 03:08:08;;;;;;;2.93;1.87;;;;;;;11.55;100.00;154325.59;5005029;28;20490;-81
2023/10/04 03:10:37;;;;;;;1.90;1.50;;;;;;;11.54;100.00;154324.28;4997572;28;20986;-81
2023/10/04 03:13:12;;;;;;;3.37;2.20;;;;;;;11.55;100.00;154326.88;4989152;28;20464;-80
2023/10/04 03:15:40;;;;;;;3.47;2.20;;;;;;;11.53;100.00;154320.41;4998457;28;20472;-80
2023/10/04 03:18:17;;;;;;;3.50;2.27;;;;;;;11.55;100.00;154325.59;5006383;28;20495;-80
2023/10/04 03:20:54;;;;;;;2.60;2.10;;;;;;;11.54;100.00;154323.03;5013759;28;20468;-80
2023/10/04 03:23:24;;;;;;;3.33;2.17;;;;;;;11.57;100.00;154332.06;4991300;28;20461;-79
2023/10/04 03:25:53;;;;;;;2.90;2.00;;;;;;;11.56;100.00;154328.19;4996594;28;20443;-79
2023/10/04 03:28:25;;;;;;;3.10;1.83;;;;;;;11.58;100.00;154333.38;4988318;28;20452;-79
2023/10/04 03:30:52;;;;;;;3.43;2.13;;;;;;;11.56;100.00;154328.19;5006725;28;20429;-80
2023/10/04 03:33:19;;;;;;;2.40;1.80;;;;;;;11.53;100.00;154321.72;5001908;28;20472;-79
2023/10/04 03:35:47;;;;;;;5.83;1.97;;;;;;;11.54;100.00;154323.03;5011936;28;20459;-79
2023/10/04 03:38:14;;;;;;;4.30;1.83;;;;;;;11.55;100.00;154325.59;4995646;28;20468;-79
2023/10/04 03:40:43;;;;;;;2.27;1.60;;;;;;;11.55;100.00;154326.88;5019690;28;20434;-80
2023/10/04 03:43:14;;;;;;;5.00;2.37;;;;;;;11.54;100.00;154323.03;4985123;28;20461;-79
2023/10/04 03:45:44;;;;;;;5.63;2.50;;;;;;;11.53;100.00;154320.41;5018294;28;20448;-80
2023/10/04 03:48:15;;;;;;;4.53;2.47;;;;;;;11.48;100.00;154308.75;5010077;28;20495;-79
2023/10/04 03:50:45;;;;;;;2.63;1.50;;;;;;;11.43;100.00;154294.50;4990563;28;20452;-79
2023/10/04 03:53:12;;;;;;;2.50;1.73;;;;;;;11.38;100.00;154281.56;5018629;28;20467;-79
2023/10/04 03:55:41;;;;;;;3.80;2.17;;;;;;;11.32;100.00;154266.00;5012097;28;20482;-79
2023/10/04 03:58:09;;;;;;;3.40;1.90;;;;;;;11.27;100.00;154254.34;5012964;28;20847;-79
2023/10/04 04:00:37;;;;;;;4.00;2.30;;;;;;;11.24;100.00;154245.25;4991803;28;20525;-80
2023/10/04 04:03:04;;;;;;;3.87;2.50;;;;;;;11.24;100.00;154245.25;4994715;28;20518;-80
2023/10/04 04:05:32;;;;;;;3.07;2.10;;;;;;;11.26;100.00;154250.44;5004531;28;20559;-79
2023/10/04 04:07:59;;;;;;;4.07;2.63;;;;;;;11.27;100.00;154253.03;4998029;28;20530;-80
2023/10/04 04:10:26;;;;;;;2.33;1.77;;;;;;;11.27;100.00;154253.03;4977228;28;20434;-79
2023/10/04 04:12:55;;;;;;;2.97;2.27;;;;;;;11.22;100.00;154240.09;4998000;28;20459;-80
2023/10/04 04:15:23;;;;;;;2.77;2.10;;;;;;;11.21;100.00;154237.47;4990319;28;20484;-79
2023/10/04 04:17:50;;;;;;;2.80;2.03;;;;;;;11.20;100.00;154234.94;5025355;28;20793;-79
2023/10/04 04:20:19;;;;;;;3.50;1.93;;;;;;;11.18;100.00;154229.72;5007554;28;20981;-80
2023/10/04 04:22:50;;;;;;;3.20;1.97;;;;;;;11.14;100.00;154219.38;4994305;28;20491;-79
2023/10/04 04:25:19;;;;;;;3.30;2.10;;;;;;;11.14;100.00;154219.38;4989582;28;20492;-80
2023/10/04 04:27:50;;;;;;;2.70;1.90;;;;;;;11.16;100.00;154224.53;4992277;28;20485;-80
2023/10/04 04:30:22;;;;;;;3.63;2.23;;;;;;;11.16;100.00;154224.53;4990590;28;20540;-80
2023/10/04 04:32:52;;;;;;;2.87;2.10;;;;;;;11.14;100.00;154219.38;5011561;28;20477;-79
2023/10/04 04:35:47;;;;;;;4.10;2.10;;;;;;;11.11;100.00;154212.88;4989114;28;20437;-81
2023/10/04 04:38:13;;;;;;;3.80;1.90;;;;;;;11.07;100.00;154201.25;5006518;28;20455;-81
2023/10/04 04:40:47;;;;;;;3.20;2.23;;;;;;;11.02;100.00;154190.84;4997899;28;20522;-81
2023/10/04 04:43:26;;;;;;;4.70;2.53;;;;;;;11.00;100.00;154184.38;4996962;28;20468;-80
2023/10/04 04:45:57;;;;;;;5.90;2.57;;;;;;;11.00;100.00;154185.69;4984014;28;20455;-80
2023/10/04 04:48:36;;;;;;;2.90;2.30;;;;;;;11.01;100.00;154188.25;4995351;28;20990;-80
2023/10/04 04:51:11;;;;;;;4.57;2.97;;;;;;;10.98;100.00;154180.53;4992158;28;20437;-80
2023/10/04 04:53:47;;;;;;;4.00;2.50;;;;;;;10.96;100.00;154175.31;4988879;28;20487;-81
2023/10/04 04:56:18;;;;;;;3.77;2.87;;;;;;;10.96;100.00;154175.31;5006598;28;20448;-80
2023/10/04 04:58:48;;;;;;;3.10;2.10;;;;;;;10.96;100.00;154175.31;5005346;28;20470;-80
2023/10/04 05:01:16;;;;;;;3.33;2.20;;;;;;;10.93;100.00;154167.53;4991360;28;20458;-80
2023/10/04 05:03:46;;;;;;;3.07;2.20;;;;;;;10.94;100.00;154170.13;5003812;28;20480;-81
2023/10/04 05:06:15;;;;;;;2.83;1.70;;;;;;;10.94;100.00;154170.13;5002946;28;20449;-80
2023/10/04 05:08:42;;;;;;;2.43;1.77;;;;;;;10.94;100.00;154168.81;4995933;28;20852;-81
2023/10/04 05:11:09;;;;;;;4.07;2.00;;;;;;;10.94;100.00;154168.81;4998335;28;20445;-80
2023/10/04 05:13:36;;;;;;;4.10;2.60;;;;;;;10.91;100.00;154162.34;4998875;28;20455;-80
2023/10/04 05:16:04;;;;;;;2.60;2.00;;;;;;;10.91;100.00;154161.06;4997932;28;20452;-80
2023/10/04 05:18:31;;;;;;;4.90;2.90;;;;;;;10.88;100.00;154154.56;4994987;28;20967;-81
2023/10/04 05:21:00;;;;;;;3.00;1.90;;;;;;;10.85;100.00;154145.53;4997079;28;20990;-80
2023/10/04 05:23:29;;;;;;;5.73;2.30;;;;;;;10.85;100.00;154146.84;4997366;28;20487;-81
2023/10/04 05:25:55;;;;;;;3.70;2.07;;;;;;;10.88;100.00;154153.31;4997246;28;20473;-80
2023/10/04 05:28:23;;;;;;;2.17;1.97;;;;;;;10.86;100.00;154149.41;4998998;28;20484;-81
2023/10/04 05:30:51;;;;;;;3.00;1.60;;;;;;;10.84;100.00;154142.94;4996699;28;20460;-81
2023/10/04 05:33:19;;;;;;;3.27;1.97;;;;;;;10.83;100.00;154141.63;4996550;28;20827;-80
2023/10/04 05:35:52;;;;;;;3.77;1.90;;;;;;;10.81;100.00;154136.47;4978947;28;20441;-80
2023/10/04 05:38:22;;;;;;;4.33;2.40;;;;;;;10.80;100.00;154133.84;4996041;28;20903;-80
2023/10/04 05:40:50;;;;;;;4.73;1.73;;;;;;;10.80;100.00;154133.84;4994120;28;20564;-80
2023/10/04 05:43:17;;;;;;;2.63;2.00;;;;;;;10.80;100.00;154133.84;4995808;28;20472;-80
2023/10/04 05:45:46;;;;;;;2.30;2.00;;;;;;;10.84;100.00;154144.25;4996981;28;20449;-81
2023/10/04 05:48:13;;;;;;;2.27;1.90;;;;;;;10.84;100.00;154142.94;4992797;28;20495;-80
2023/10/04 05:50:40;;;;;;;2.90;1.77;;;;;;;10.82;100.00;154137.78;4997499;28;20567;-80
2023/10/04 05:53:08;;;;;;;3.70;2.13;;;;;;;10.82;100.00;154139.06;4994637;28;20453;-80
2023/10/04 05:55:37;;;;;;;3.17;1.90;;;;;;;10.85;100.00;154146.84;4979697;28;20461;-80
2023/10/04 05:58:07;;;;;;;2.73;2.13;;;;;;;10.89;100.00;154157.19;4995588;28;20473;-80
2023/10/04 06:00:34;;;;;;;3.07;2.20;;;;;;;10.95;100.00;154171.44;4991516;28;20453;-80
2023/10/04 06:03:06;;;;;;;5.10;2.40;;;;;;;11.07;100.00;154201.25;4997310;28;20563;-80
2023/10/04 06:05:34;;;;;;;3.70;2.00;;;;;;;11.22;100.00;154240.09;5008980;28;20487;-80
2023/10/04 06:08:03;;;;;;;2.93;2.23;;;;;;;11.38;100.00;154282.84;4993782;28;20627;-80
2023/10/04 06:10:29;;;;;;;2.80;2.13;;;;;;;11.52;100.00;154317.81;4993713;28;20523;-81
2023/10/04 06:12:57;;;;;;;3.30;2.00;;;;;;;11.71;100.00;154367.09;4994669;28;20961;-80
2023/10/04 06:15:24;;;;;;;3.30;2.00;;;;;;;11.89;100.00;154413.75;4993937;28;20454;-81
2023/10/04 06:17:52;;;;;;;2.90;1.70;;;;;;;12.05;100.00;154453.94;4996312;28;20575;-80
2023/10/04 06:20:28;;;;;;;3.63;1.70;;;;;;;12.18;100.00;154488.94;4996577;28;20448;-80
2023/10/04 06:22:59;;;;;;;2.50;1.70;;;;;;;12.33;99.49;154525.25;4992023;28;20968;-80
2023/10/04 06:25:26;;;;;;;3.10;1.63;;;;;;;12.52;98.81;154574.53;4995915;28;20819;-80
2023/10/04 06:27:56;;;;;;;2.50;1.83;;;;;;;12.75;98.18;154634.19;4994148;28;20480;-80
2023/10/04 06:30:26;;;;;;;3.27;1.67;;;;;;;12.97;97.19;154691.28;4994830;28;20936;-78
2023/10/04 06:32:55;;;;;;;2.80;1.57;;;;;;;13.21;96.17;154753.56;4993377;28;21171;-78
2023/10/04 06:35:23;;;;;;;2.60;1.20;;;;;;;13.40;94.96;154802.88;4994152;28;20452;-78
2023/10/04 06:37:51;;;;;;;3.23;2.67;;;;;;;13.61;94.55;154856.06;4992523;28;20559;-78
2023/10/04 06:40:19;;;;;;;1.93;1.50;;;;;;;13.86;93.45;154919.69;4993556;28;20918;-78
2023/10/04 06:42:46;;;;;;;3.87;1.20;;;;;;;14.13;92.35;154988.50;4993339;28;20987;-78
2023/10/04 06:45:13;;;;;;;3.37;1.50;;;;;;;14.40;90.95;155059.94;4977491;28;20459;-78
2023/10/04 06:47:43;;;;;;;3.33;1.47;;;;;;;14.63;89.91;155119.72;4994724;28;20745;-78
2023/10/04 06:50:13;;;;;;;4.23;1.60;;;;;;;14.86;88.70;155178.16;4993923;28;20460;-78
2023/10/04 06:52:41;;;;;;;4.13;1.73;;;;;;;15.11;87.73;155243.16;4993879;28;20547;-78
2023/10/04 06:55:08;;;;;;;3.17;1.80;;;;;;;15.37;86.92;155309.41;4994740;28;20535;-78
2023/10/04 06:57:35;;;;;;;3.30;1.70;;;;;;;15.62;86.23;155373.16;4993449;28;20568;-78
2023/10/04 07:00:02;;;;;;;3.70;2.23;;;;;;;15.79;85.64;155417.34;4994775;28;20973;-78
2023/10/04 07:02:28;;;;;;;2.80;1.53;;;;;;;16.00;85.32;155470.63;4995898;28;20847;-79
2023/10/04 07:04:56;;;;;;;2.30;1.60;;;;;;;16.20;84.36;155522.66;4997465;28;20452;-78
2023/10/04 07:07:23;;;;;;;2.80;1.70;;;;;;;16.42;83.53;155581.16;4998125;28;20970;-80
2023/10/04 07:09:50;;;;;;;3.27;1.50;;;;;;;16.61;82.40;155629.34;4999631;28;20892;-78
2023/10/04 07:12:16;;;;;;;3.00;1.73;;;;;;;16.75;81.73;155664.47;4997511;28;20987;-80
2023/10/04 07:14:45;;;;;;;6.73;2.37;;;;;;;16.90;81.93;155703.50;4999052;28;20461;-79
2023/10/04 07:17:11;;;;;;;2.80;2.00;;;;;;;17.05;81.36;155743.81;4995199;28;20457;-79
2023/10/04 07:19:38;;;;;;;5.10;2.40;;;;;;;17.21;80.52;155782.91;4996262;28;20453;-80
2023/10/04 07:22:06;;;;;;;3.83;2.50;;;;;;;17.31;80.74;155808.91;5000961;28;20465;-79
2023/10/04 07:24:33;;;;;;;3.80;2.30;;;;;;;17.40;79.99;155833.63;4998328;28;20571;-79
2023/10/04 07:26:59;;;;;;;4.77;2.57;;;;;;;17.56;78.95;155874.03;4995496;28;20979;-79
2023/10/04 07:29:26;;;;;;;3.70;1.80;;;;;;;17.77;79.11;155928.69;4996854;28;20927;-80
2023/10/04 07:31:53;;;;;;;3.90;2.23;;;;;;;17.92;78.03;155966.50;4996609;28;20488;-79
2023/10/04 07:34:19;;;;;;;3.30;1.70;;;;;;;18.06;77.45;156002.91;4995307;28;20444;-79
2023/10/04 07:36:46;;;;;;;3.13;2.00;;;;;;;18.21;76.64;156043.28;4997563;28;20467;-80
2023/10/04 07:39:15;;;;;;;3.07;1.67;;;;;;;18.32;75.25;156069.38;5000509;28;20987;-79
2023/10/04 07:41:42;;;;;;;4.27;1.80;;;;;;;18.43;73.82;156097.97;4996834;28;20859;-80
2023/10/04 07:44:10;;;;;;;4.07;1.80;;;;;;;18.67;74.95;156160.56;4995945;28;20828;-79
2023/10/04 07:46:37;;;;;;;3.47;1.90;;;;;;;18.89;73.88;156217.91;4997163;28;20975;-79
2023/10/04 07:49:04;;;;;;;3.57;1.50;;;;;;;19.04;73.35;156256.97;4995419;28;20546;-81
2023/10/04 07:51:31;;;;;;;3.13;1.60;;;;;;;19.12;72.46;156277.84;4998726;28;21118;-79
2023/10/04 07:53:58;;;;;;;3.60;2.00;;;;;;;19.24;73.09;156309.13;4996725;28;20455;-80
2023/10/04 07:56:27;;;;;;;2.43;1.50;;;;;;;19.20;73.11;156298.69;4982149;28;20908;-79
2023/10/04 07:58:54;;;;;;;2.53;1.90;;;;;;;19.27;73.80;156316.91;4996519;28;20479;-79
2023/10/04 08:01:20;;;;;;;2.30;1.60;;;;;;;19.21;73.65;156300.00;4997930;28;20460;-79
2023/10/04 08:03:47;;;;;;;2.00;1.10;;;;;;;19.07;71.72;156263.50;4996433;28;20873;-79
2023/10/04 08:06:15;;;;;;;3.00;1.40;;;;;;;18.87;72.26;156212.72;5000139;28;20456;-79
2023/10/04 08:08:42;;;;;;;2.57;1.27;;;;;;;18.69;72.39;156167.06;4998738;28;20553;-80
2023/10/04 08:11:09;;;;;;;5.80;1.20;;;;;;;18.48;73.89;156111.09;4999868;28;20449;-80
2023/10/04 08:13:37;;;;;;;3.60;1.90;;;;;;;18.34;76.09;156074.56;4998208;28;20534;-80
2023/10/04 08:16:04;;;;;;;3.40;1.30;;;;;;;18.23;75.43;156048.53;4995407;28;20453;-79
2023/10/04 08:18:31;;;;;;;1.97;1.00;;;;;;;18.09;74.11;156010.72;4979093;28;20453;-79
2023/10/04 08:21:07;;;;;;;2.30;1.20;;;;;;;17.88;76.04;155957.34;4996459;28;20447;-79
2023/10/04 08:23:34;;;;;;;2.97;1.33;;;;;;;17.66;76.17;155900.06;4995619;28;20457;-79
2023/10/04 08:26:00;;;;;;;2.67;1.47;;;;;;;17.44;73.53;155842.75;4997565;28;20906;-79
2023/10/04 08:28:27;;;;;;;2.90;1.43;;;;;;;17.35;76.66;155820.63;4997485;28;20476;-79
2023/10/04 08:30:55;;;;;;;3.43;1.17;;;;;;;17.23;75.45;155788.09;4995415;28;21019;-79
2023/10/04 08:33:31;;;;;;;6.93;1.33;;;;;;;17.22;73.27;155785.47;4996227;28;20510;-79
2023/10/04 08:35:59;;;;;;;3.10;1.57;;;;;;;17.21;76.89;155782.91;4997787;28;20558;-79
2023/10/04 08:38:26;;;;;;;3.60;1.50;;;;;;;17.14;74.97;155764.66;4996054;28;20976;-79
2023/10/04 08:40:53;;;;;;;4.17;1.70;;;;;;;17.19;79.31;155777.66;4996788;28;20461;-79
2023/10/04 08:43:20;;;;;;;3.77;2.07;;;;;;;16.96;74.09;155720.44;4997628;28;20457;-79
2023/10/04 08:45:46;;;;;;;3.13;1.40;;;;;;;16.74;78.05;155663.16;4998263;28;20460;-79
2023/10/04 08:48:15;;;;;;;2.90;1.50;;;;;;;16.68;80.93;155647.53;4995353;28;20487;-79
2023/10/04 08:50:49;;;;;;;7.87;1.40;;;;;;;16.74;72.70;155663.16;4980631;28;20456;-79
2023/10/04 08:53:26;;;;;;;1.70;1.30;;;;;;;16.72;75.26;155657.97;4995916;28;20453;-79
2023/10/04 08:55:55;;;;;;;2.70;1.50;;;;;;;16.71;78.83;155655.34;4994637;28;20446;-79
2023/10/04 08:58:22;;;;;;;3.00;1.57;;;;;;;16.65;76.38;155639.78;4960367;28;20452;-79
2023/10/04 09:00:50;;;;;;;4.80;1.73;;;;;;;16.60;74.84;155626.72;4995711;28;20493;-79
2023/10/04 09:03:20;;;;;;;2.83;1.00;;;;;;;16.61;75.26;155629.34;4991221;28;20576;-79
2023/10/04 09:05:47;;;;;;;2.50;1.37;;;;;;;16.63;75.92;155634.53;4977863;28;20810;-79
2023/10/04 09:08:14;;;;;;;4.07;1.77;;;;;;;16.70;76.95;155652.78;4995152;28;20489;-79
2023/10/04 09:10:41;;;;;;;1.80;1.30;;;;;;;16.56;75.70;155616.34;4996188;28;20480;-79
2023/10/04 09:13:09;;;;;;;3.50;1.27;;;;;;;16.62;78.95;155630.66;4996247;28;20998;-79
2023/10/04 09:15:35;;;;;;;2.30;1.30;;;;;;;16.57;78.69;155618.97;4993850;28;20535;-79
2023/10/04 09:18:04;;;;;;;2.70;1.53;;;;;;;16.55;81.12;155612.47;4996986;28;20453;-79
2023/10/04 09:20:32;;;;;;;2.60;1.40;;;;;;;16.48;74.56;155594.16;4997174;28;21070;-79
2023/10/04 09:23:00;;;;;;;3.40;1.40;;;;;;;16.64;73.11;155637.16;4994718;28;21013;-79
2023/10/04 09:25:35;;;;;;;1.60;1.00;;;;;;;16.90;74.89;155704.81;4996261;28;20452;-79
2023/10/04 09:28:02;;;;;;;1.47;1.00;;;;;;;16.92;76.98;155708.69;4995561;28;20927;-79
2023/10/04 09:30:29;;;;;;;3.83;1.00;;;;;;;16.87;78.04;155697.00;4994552;28;20446;-79
2023/10/04 09:32:56;;;;;;;3.20;1.20;;;;;;;16.90;75.24;155704.81;4995123;28;20521;-79
2023/10/04 09:35:22;;;;;;;5.73;2.03;;;;;;;16.96;79.55;155720.44;4994270;28;21241;-79
2023/10/04 09:37:50;;;;;;;2.80;1.50;;;;;;;16.94;80.93;155715.19;4994671;28;20461;-79
2023/10/04 09:40:19;;;;;;;2.20;1.30;;;;;;;16.85;79.50;155691.81;4993098;28;20517;-79
2023/10/04 09:42:49;;;;;;;3.33;1.43;;;;;;;16.88;80.27;155699.63;4994228;28;20464;-79
2023/10/04 09:45:15;;;;;;;2.10;1.20;;;;;;;16.91;78.69;155707.44;4995253;28;20495;-79
2023/10/04 09:47:42;;;;;;;2.50;1.40;;;;;;;16.87;77.53;155697.00;4993935;28;20461;-79
2023/10/04 09:50:20;;;;;;;2.10;1.00;;;;;;;16.86;76.50;155694.41;4995198;28;20469;-79
2023/10/04 09:52:46;;;;;;;3.20;1.40;;;;;;;16.90;77.70;155704.81;4994638;28;20468;-79
2023/10/04 09:55:15;;;;;;;3.50;2.03;;;;;;;16.91;76.34;155707.44;4997120;28;20468;-79
2023/10/04 09:57:44;;;;;;;2.73;1.40;;;;;;;16.95;77.10;155716.50;4985934;28;20458;-79
2023/10/04 10:00:17;;;;;;;7.93;1.20;;;;;;;16.93;79.27;155712.63;4996004;28;20958;-79
2023/10/04 10:02:47;;;;;;;4.20;1.80;;;;;;;16.99;81.25;155726.94;4995678;28;20540;-79
2023/10/04 10:05:19;;;;;;;2.37;1.10;;;;;;;16.99;81.43;155728.25;4994643;28;20542;-79
2023/10/04 10:07:48;;;;;;;2.17;1.43;;;;;;;17.04;79.07;155739.94;4992345;28;20501;-79
2023/10/04 10:10:19;;;;;;;1.80;1.20;;;;;;;17.01;74.81;155732.13;4997661;28;20535;-79
2023/10/04 10:12:49;;;;;;;2.60;1.30;;;;;;;17.00;76.44;155729.50;4995199;28;20516;-79
2023/10/04 10:15:18;;;;;;;3.47;1.10;;;;;;;17.01;79.49;155732.13;4996730;28;20457;-79
2023/10/04 10:17:48;;;;;;;2.53;1.30;;;;;;;16.97;79.05;155723.00;4993523;28;20970;-79
2023/10/04 10:20:16;;;;;;;2.07;1.30;;;;;;;16.91;73.02;155707.44;4995417;28;20480;-79
2023/10/04 10:23:13;;;;;;;1.93;1.10;;;;;;;17.00;74.37;155729.50;4993808;28;20533;-79
2023/10/04 10:25:41;;;;;;;3.30;1.40;;;;;;;17.05;69.89;155743.81;4993734;28;20455;-79
2023/10/04 10:28:21;;;;;;;2.07;1.47;;;;;;;17.16;72.49;155769.84;4994338;28;21014;-79
2023/10/04 10:30:48;;;;;;;2.13;1.40;;;;;;;17.23;75.00;155788.09;4992915;28;20570;-80
2023/10/04 10:33:22;;;;;;;2.73;1.50;;;;;;;17.22;75.36;155785.47;4974851;28;20457;-79
2023/10/04 10:35:52;;;;;;;2.70;1.20;;;;;;;17.16;77.44;155771.16;4974729;28;20569;-79
2023/10/04 10:38:45;;;;;;;3.77;1.70;;;;;;;17.10;76.13;155754.25;4974873;28;20450;-79
2023/10/04 10:41:57;;;;;;;3.07;1.20;;;;;;;17.09;75.74;155751.63;4975018;28;20835;-79
2023/10/04 10:44:30;;;;;;;3.20;1.23;;;;;;;17.05;72.30;155743.81;4975643;28;20453;-79
2023/10/04 10:46:57;;;;;;;3.20;1.67;;;;;;;17.11;74.62;155756.84;4974646;28;20448;-79
2023/10/04 10:49:39;;;;;;;2.57;1.30;;;;;;;17.08;71.24;155750.34;4974726;28;20892;-79
2023/10/04 10:52:09;;;;;;;3.50;1.47;;;;;;;17.14;72.02;155765.97;4975246;28;20894;-79
2023/10/04 10:54:36;;;;;;;2.40;1.13;;;;;;;17.12;74.18;155759.47;4975427;28;20488;-79
2023/10/04 10:57:05;;;;;;;2.90;1.33;;;;;;;17.05;71.04;155743.81;4976343;28;20449;-79
2023/10/04 10:59:33;;;;;;;1.93;1.20;;;;;;;17.11;73.16;155756.84;4974325;28;20461;-79
2023/10/04 11:01:59;;;;;;;2.30;1.50;;;;;;;17.04;75.02;155739.94;4975835;28;20478;-79
2023/10/04 11:04:26;;;;;;;2.60;1.33;;;;;;;16.96;72.20;155720.44;4977294;28;20449;-79
2023/10/04 11:06:53;;;;;;;2.40;1.27;;;;;;;16.93;72.29;155712.63;4973842;28;20991;-79
2023/10/04 11:09:20;;;;;;;4.30;1.63;;;;;;;16.96;72.01;155719.13;4975514;28;20868;-79
2023/10/04 11:11:47;;;;;;;2.43;1.20;;;;;;;16.97;75.67;155721.75;4976002;28;20830;-79
2023/10/04 11:14:16;;;;;;;2.20;1.27;;;;;;;16.89;75.35;155700.94;4973755;28;20864;-79
2023/10/04 11:16:42;;;;;;;2.53;1.40;;;;;;;16.81;76.52;155680.09;4974898;28;20976;-79
2023/10/04 11:19:10;;;;;;;2.23;1.27;;;;;;;16.81;73.55;155681.38;4978548;28;21033;-79
2023/10/04 11:21:36;;;;;;;2.20;1.30;;;;;;;16.80;71.10;155677.47;4977522;28;20945;-79
2023/10/04 11:24:05;;;;;;;2.30;1.40;;;;;;;16.77;70.06;155670.97;4972598;28;20477;-79
2023/10/04 11:26:32;;;;;;;3.00;1.43;;;;;;;16.76;71.13;155668.38;4975778;28;20445;-79
2023/10/04 11:28:59;;;;;;;5.93;1.30;;;;;;;16.86;76.00;155694.41;4976567;28;20493;-79